createdAt,value
2018-07-07T00:01:30.214Z,1.33
2018-07-07T00:04:03.451Z,1.50
2018-07-07T00:06:36.399Z,1.40
2018-07-07T00:09:11.371Z,1.50
2018-07-07T00:11:43.986Z,1.47
2018-07-07T00:14:17.249Z,1.63
2018-07-07T00:16:50.133Z,1.40
2018-07-07T00:19:22.921Z,1.50
2018-07-07T00:21:55.863Z,1.40
2018-07-07T00:24:28.752Z,1.70
2018-07-07T00:27:01.489Z,1.30
2018-07-07T00:29:35.585Z,1.20
2018-07-07T00:32:08.142Z,1.50
2018-07-07T00:34:42.523Z,1.20
2018-07-07T00:37:16.069Z,1.30
2018-07-07T00:39:48.666Z,1.60
2018-07-07T00:42:16.832Z,1.43
2018-07-07T00:44:45.005Z,1.40
2018-07-07T00:47:13.086Z,1.20
2018-07-07T00:49:41.183Z,1.47
2018-07-07T00:52:09.273Z,1.47
2018-07-07T00:54:37.361Z,1.53
2018-07-07T00:57:05.550Z,1.30
2018-07-07T00:59:33.631Z,1.37
2018-07-07T01:02:01.613Z,1.30
2018-07-07T01:04:29.641Z,1.80
2018-07-07T01:06:57.656Z,1.43
2018-07-07T01:09:25.703Z,1.40
2018-07-07T01:11:53.716Z,1.33
2018-07-07T01:14:21.721Z,1.30
2018-07-07T01:16:49.770Z,1.50
2018-07-07T01:19:17.757Z,1.40
2018-07-07T01:21:45.740Z,1.47
2018-07-07T01:24:13.785Z,1.47
2018-07-07T01:26:41.772Z,1.30
2018-07-07T01:29:09.775Z,1.50
2018-07-07T01:31:37.750Z,1.33
2018-07-07T01:34:05.771Z,1.37
2018-07-07T01:36:33.890Z,1.80
2018-07-07T01:39:01.865Z,1.50
2018-07-07T01:41:29.845Z,1.50
2018-07-07T01:43:57.834Z,1.33
2018-07-07T01:46:25.919Z,1.17
2018-07-07T01:48:54.096Z,1.30
2018-07-07T01:51:22.125Z,1.33
2018-07-07T01:53:50.307Z,1.20
2018-07-07T01:56:18.424Z,1.27
2018-07-07T01:58:46.439Z,1.60
2018-07-07T02:01:14.539Z,1.70
2018-07-07T02:03:42.539Z,1.40
2018-07-07T02:06:10.684Z,1.47
2018-07-07T02:08:38.706Z,1.20
2018-07-07T02:11:06.827Z,1.30
2018-07-07T02:13:34.885Z,1.73
2018-07-07T02:16:03.079Z,1.33
2018-07-07T02:18:31.080Z,1.43
2018-07-07T02:20:59.087Z,1.50
2018-07-07T02:23:27.148Z,1.40
2018-07-07T02:25:55.144Z,1.43
2018-07-07T02:28:23.137Z,1.30
2018-07-07T02:30:51.164Z,1.50
2018-07-07T02:33:19.142Z,1.60
2018-07-07T02:35:47.139Z,1.63
2018-07-07T02:38:15.132Z,1.30
2018-07-07T02:40:43.129Z,1.37
2018-07-07T02:43:11.330Z,1.37
2018-07-07T02:45:39.511Z,1.47
2018-07-07T02:48:07.538Z,1.20
2018-07-07T02:50:35.575Z,1.27
2018-07-07T02:53:03.602Z,1.30
2018-07-07T02:55:31.579Z,1.40
2018-07-07T02:57:59.591Z,1.60
2018-07-07T03:00:27.586Z,1.60
2018-07-07T03:02:55.558Z,1.30
2018-07-07T03:05:23.572Z,1.60
2018-07-07T03:07:51.555Z,1.50
2018-07-07T03:10:19.562Z,1.20
2018-07-07T03:12:47.562Z,1.33
2018-07-07T03:15:18.678Z,1.20
2018-07-07T03:17:46.675Z,1.33
2018-07-07T03:20:14.659Z,1.40
2018-07-07T03:22:42.692Z,1.30
2018-07-07T03:25:11.046Z,1.37
2018-07-07T03:27:39.151Z,1.30
2018-07-07T03:30:07.482Z,1.50
2018-07-07T03:32:35.467Z,1.50
2018-07-07T03:35:03.459Z,1.27
2018-07-07T03:37:31.449Z,1.30
2018-07-07T03:39:59.426Z,1.13
2018-07-07T03:42:27.425Z,1.20
2018-07-07T03:44:55.414Z,1.20
2018-07-07T03:47:23.405Z,1.20
2018-07-07T03:49:55.939Z,1.27
2018-07-07T03:52:24.032Z,1.17
2018-07-07T03:54:52.017Z,1.60
2018-07-07T03:57:20.023Z,1.07
2018-07-07T03:59:48.006Z,1.20
2018-07-07T04:02:16.001Z,1.40
2018-07-07T04:04:44.002Z,1.10
2018-07-07T04:07:12.038Z,1.30
2018-07-07T04:09:40.444Z,1.00
2018-07-07T04:12:08.438Z,1.20
2018-07-07T04:14:36.415Z,1.30
2018-07-07T04:17:04.674Z,1.20
2018-07-07T04:19:32.659Z,1.30
2018-07-07T04:22:00.639Z,1.17
2018-07-07T04:24:28.647Z,1.13
2018-07-07T04:26:56.635Z,1.00
2018-07-07T04:29:24.635Z,1.20
2018-07-07T04:31:52.693Z,1.43
2018-07-07T04:34:20.670Z,1.10
2018-07-07T04:36:48.750Z,1.10
2018-07-07T04:39:16.784Z,1.20
2018-07-07T04:41:44.762Z,1.40
2018-07-07T04:44:12.747Z,1.30
2018-07-07T04:46:40.738Z,1.20
2018-07-07T04:49:08.727Z,1.10
2018-07-07T04:51:36.728Z,1.37
2018-07-07T04:54:04.720Z,1.13
2018-07-07T04:56:32.706Z,1.10
2018-07-07T04:59:00.735Z,1.20
2018-07-07T05:01:28.767Z,1.10
2018-07-07T05:03:56.772Z,1.10
2018-07-07T05:06:24.986Z,1.30
2018-07-07T05:08:53.064Z,1.00
2018-07-07T05:11:21.235Z,1.27
2018-07-07T05:13:49.330Z,1.10
2018-07-07T05:16:17.406Z,1.13
2018-07-07T05:18:45.499Z,1.40
2018-07-07T05:21:13.603Z,0.90
2018-07-07T05:23:41.690Z,1.13
2018-07-07T05:26:09.710Z,1.20
2018-07-07T05:28:37.845Z,1.33
2018-07-07T05:31:05.907Z,1.10
2018-07-07T05:33:33.930Z,1.23
2018-07-07T05:36:02.097Z,1.20
2018-07-07T05:38:30.039Z,1.20
2018-07-07T05:40:58.111Z,1.03
2018-07-07T05:43:26.197Z,1.10
2018-07-07T05:45:54.258Z,1.20
2018-07-07T05:48:22.351Z,1.00
2018-07-07T05:50:50.400Z,1.50
2018-07-07T05:53:18.468Z,1.43
2018-07-07T05:55:46.543Z,2.10
2018-07-07T05:58:14.627Z,2.37
2018-07-07T06:00:42.674Z,2.00
2018-07-07T06:03:10.725Z,2.50
2018-07-07T06:05:38.855Z,2.47
2018-07-07T06:08:06.893Z,2.70
2018-07-07T06:10:34.934Z,2.60
2018-07-07T06:13:03.040Z,2.40
2018-07-07T06:15:31.110Z,2.00
2018-07-07T06:17:59.200Z,2.10
2018-07-07T06:20:27.443Z,2.47
2018-07-07T06:22:55.485Z,2.27
2018-07-07T06:25:23.556Z,1.90
2018-07-07T06:27:51.627Z,2.10
2018-07-07T06:30:19.665Z,2.17
2018-07-07T06:32:47.714Z,2.20
2018-07-07T06:35:15.806Z,2.03
2018-07-07T06:37:43.909Z,2.00
2018-07-07T06:40:11.937Z,2.30
2018-07-07T06:42:39.993Z,2.43
2018-07-07T06:45:08.082Z,2.20
2018-07-07T06:47:36.111Z,2.00
2018-07-07T06:50:04.111Z,2.10
2018-07-07T06:52:32.102Z,2.00
2018-07-07T06:55:00.094Z,1.80
2018-07-07T06:57:28.078Z,1.87
2018-07-07T06:59:56.115Z,1.80
2018-07-07T07:02:24.079Z,1.50
2018-07-07T07:04:52.083Z,1.90
2018-07-07T07:07:20.078Z,1.70
2018-07-07T07:09:48.058Z,1.67
2018-07-07T07:12:16.030Z,1.60
2018-07-07T07:14:44.052Z,1.80
2018-07-07T07:17:12.029Z,1.70
2018-07-07T07:19:40.074Z,8.37
2018-07-07T07:22:08.075Z,3.87
2018-07-07T07:24:36.123Z,3.00
2018-07-07T07:27:04.291Z,2.70
2018-07-07T07:29:32.318Z,2.40
2018-07-07T07:32:00.311Z,2.53
2018-07-07T07:34:28.294Z,3.00
2018-07-07T07:36:56.361Z,3.43
2018-07-07T07:39:24.278Z,3.10
2018-07-07T07:41:52.351Z,3.20
2018-07-07T07:44:20.339Z,2.57
2018-07-07T07:46:48.323Z,2.60
2018-07-07T07:49:16.319Z,2.80
2018-07-07T07:51:44.310Z,3.07
2018-07-07T07:54:12.298Z,2.43
2018-07-07T07:56:40.265Z,2.40
2018-07-07T07:59:08.258Z,1.63
2018-07-07T08:01:36.266Z,2.40
2018-07-07T08:04:04.729Z,2.10
2018-07-07T08:06:32.743Z,1.90
2018-07-07T08:09:00.723Z,1.93
2018-07-07T08:11:28.699Z,2.17
2018-07-07T08:13:56.703Z,1.50
2018-07-07T08:16:24.686Z,2.03
2018-07-07T08:18:52.669Z,1.77
2018-07-07T08:21:20.662Z,1.80
2018-07-07T08:23:48.638Z,1.43
2018-07-07T08:26:16.623Z,1.57
2018-07-07T08:28:44.620Z,2.50
2018-07-07T08:31:12.594Z,1.70
2018-07-07T08:33:40.585Z,1.70
2018-07-07T08:38:44.242Z,1.60
2018-07-07T08:41:13.250Z,1.53
2018-07-07T08:43:41.542Z,1.43
2018-07-07T08:46:09.683Z,2.13
2018-07-07T08:48:37.688Z,1.43
2018-07-07T08:51:05.675Z,1.30
2018-07-07T08:53:33.672Z,1.83
2018-07-07T08:56:01.675Z,1.70
2018-07-07T08:58:29.656Z,1.70
2018-07-07T09:00:57.641Z,1.70
2018-07-07T09:03:25.739Z,1.70
2018-07-07T09:05:53.890Z,1.43
2018-07-07T09:08:21.928Z,1.80
2018-07-07T09:10:49.982Z,1.57
2018-07-07T09:13:18.006Z,1.70
2018-07-07T09:15:46.123Z,1.50
2018-07-07T09:18:14.119Z,1.70
2018-07-07T09:20:42.130Z,1.80
2018-07-07T09:23:10.166Z,1.60
2018-07-07T09:25:38.155Z,1.70
2018-07-07T09:28:06.164Z,1.77
2018-07-07T09:30:34.197Z,1.70
2018-07-07T09:33:02.240Z,1.50
2018-07-07T09:35:30.233Z,1.60
2018-07-07T09:37:58.234Z,135.10
2018-07-07T09:40:26.296Z,109.20
2018-07-07T09:42:54.290Z,86.63
2018-07-07T09:45:22.295Z,78.13
2018-07-07T09:47:50.350Z,35.70
2018-07-07T09:54:13.072Z,4.90
2018-07-07T09:56:41.051Z,3.37
2018-07-07T10:00:34.411Z,7.07
2018-07-07T10:03:02.415Z,4.80
2018-07-07T10:05:30.422Z,3.67
2018-07-07T10:08:24.600Z,5.60
2018-07-07T10:10:52.614Z,4.50
2018-07-07T10:13:20.638Z,4.50
2018-07-07T10:15:48.611Z,4.37
2018-07-07T10:18:16.647Z,3.87
2018-07-07T10:20:44.733Z,3.73
2018-07-07T10:23:12.702Z,3.50
2018-07-07T10:25:40.762Z,3.13
2018-07-07T10:28:08.862Z,3.40
2018-07-07T10:30:36.951Z,2.50
2018-07-07T10:33:05.035Z,2.83
2018-07-07T10:35:33.034Z,2.53
2018-07-07T10:38:01.112Z,2.60
2018-07-07T10:40:29.292Z,2.47
2018-07-07T10:42:57.375Z,2.50
2018-07-07T10:45:25.610Z,2.90
2018-07-07T10:47:53.566Z,2.57
2018-07-07T10:50:21.581Z,2.40
2018-07-07T10:52:49.594Z,2.47
2018-07-07T10:55:17.598Z,2.30
2018-07-07T10:57:45.608Z,2.07
2018-07-07T11:00:13.749Z,2.17
2018-07-07T11:02:41.821Z,2.20
2018-07-07T11:05:09.847Z,2.40
2018-07-07T11:07:37.835Z,1.90
2018-07-07T11:10:05.850Z,1.80
2018-07-07T11:12:33.850Z,2.30
2018-07-07T11:15:01.860Z,2.07
2018-07-07T11:17:29.943Z,2.10
2018-07-07T11:19:58.033Z,2.20
2018-07-07T11:22:26.007Z,2.10
2018-07-07T11:24:54.620Z,2.00
2018-07-07T11:27:22.641Z,2.00
2018-07-07T11:29:50.823Z,1.87
2018-07-07T11:32:18.815Z,1.77
2018-07-07T11:34:46.904Z,1.70
2018-07-07T11:37:14.920Z,2.00
2018-07-07T11:39:42.968Z,1.60
2018-07-07T11:42:10.969Z,1.80
2018-07-07T11:44:38.976Z,1.77
2018-07-07T11:47:06.974Z,2.00
2018-07-07T11:49:35.019Z,2.07
2018-07-07T11:52:03.034Z,2.00
2018-07-07T11:54:31.037Z,1.90
2018-07-07T11:56:59.137Z,1.50
2018-07-07T11:59:27.111Z,2.03
2018-07-07T12:01:55.195Z,1.40
2018-07-07T12:04:23.556Z,1.90
2018-07-07T12:06:51.517Z,2.37
2018-07-07T12:09:19.507Z,2.30
2018-07-07T12:11:47.503Z,1.90
2018-07-07T12:14:15.496Z,1.70
2018-07-07T12:16:43.503Z,1.70
2018-07-07T12:19:11.507Z,2.00
2018-07-07T12:21:39.623Z,1.70
2018-07-07T12:24:07.652Z,1.43
2018-07-07T12:26:35.814Z,1.83
2018-07-07T12:29:03.890Z,1.57
2018-07-07T12:31:31.915Z,1.80
2018-07-07T12:33:59.936Z,1.83
2018-07-07T12:39:05.690Z,1.90
2018-07-07T12:41:33.714Z,1.80
2018-07-07T12:44:01.751Z,1.83
2018-07-07T12:46:30.126Z,1.90
2018-07-07T12:48:58.142Z,1.60
2018-07-07T12:51:26.162Z,1.90
2018-07-07T12:53:54.144Z,1.60
2018-07-07T12:56:22.140Z,1.60
2018-07-07T12:58:50.212Z,2.17
2018-07-07T13:01:18.267Z,1.70
2018-07-07T13:03:46.190Z,1.73
2018-07-07T13:06:14.194Z,1.77
2018-07-07T13:08:42.214Z,1.60
2018-07-07T13:11:10.260Z,1.60
2018-07-07T13:13:38.279Z,1.73
2018-07-07T13:16:06.348Z,1.70
2018-07-07T13:18:34.326Z,2.10
2018-07-07T13:21:02.375Z,1.83
2018-07-07T13:23:30.435Z,1.77
2018-07-07T13:25:58.484Z,1.90
2018-07-07T13:28:26.473Z,1.70
2018-07-07T13:30:54.499Z,2.27
2018-07-07T13:33:22.553Z,2.17
2018-07-07T13:35:50.547Z,1.87
2018-07-07T13:38:18.606Z,1.90
2018-07-07T13:40:46.607Z,1.80
2018-07-07T13:43:14.680Z,2.03
2018-07-07T13:45:42.682Z,2.00
2018-07-07T13:48:10.735Z,1.93
2018-07-07T13:50:38.757Z,1.87
2018-07-07T13:53:06.779Z,1.90
2018-07-07T13:55:34.774Z,1.90
2018-07-07T13:58:02.786Z,1.90
2018-07-07T14:00:30.792Z,1.93
2018-07-07T14:02:58.790Z,2.07
2018-07-07T14:05:26.819Z,2.00
2018-07-07T14:07:54.835Z,2.00
2018-07-07T14:10:22.831Z,2.03
2018-07-07T14:12:50.912Z,2.17
2018-07-07T14:15:18.931Z,1.93
2018-07-07T14:17:46.919Z,2.00
2018-07-07T14:20:14.963Z,1.90
2018-07-07T14:22:42.943Z,1.67
2018-07-07T14:25:10.952Z,1.90
2018-07-07T14:27:38.935Z,1.90
2018-07-07T14:30:06.951Z,2.00
2018-07-07T14:32:34.935Z,1.70
2018-07-07T14:35:02.960Z,1.87
2018-07-07T14:37:30.983Z,1.80
2018-07-07T14:40:00.063Z,1.90
2018-07-07T14:42:33.691Z,1.77
2018-07-07T14:45:03.121Z,1.53
2018-07-07T14:47:32.743Z,2.00
2018-07-07T14:50:00.873Z,1.83
2018-07-07T14:52:28.846Z,1.90
2018-07-07T14:54:56.858Z,2.50
2018-07-07T14:57:24.847Z,1.50
2018-07-07T14:59:52.866Z,1.53
2018-07-07T15:02:20.900Z,1.77
2018-07-07T15:04:48.916Z,1.70
2018-07-07T15:07:16.909Z,1.80
2018-07-07T15:09:44.904Z,1.77
2018-07-07T15:12:12.925Z,1.73
2018-07-07T15:14:40.937Z,1.77
2018-07-07T15:17:08.933Z,1.67
2018-07-07T15:19:36.971Z,1.50
2018-07-07T15:22:05.012Z,1.80
2018-07-07T15:24:32.995Z,1.57
2018-07-07T15:27:01.146Z,1.80
2018-07-07T15:29:29.152Z,1.50
2018-07-07T15:31:57.279Z,1.60
2018-07-07T15:34:25.351Z,1.80
2018-07-07T15:36:53.409Z,2.83
2018-07-07T15:39:21.499Z,6.43
2018-07-07T15:41:49.562Z,5.60
2018-07-07T15:44:17.646Z,11.37
2018-07-07T15:46:45.775Z,10.07
2018-07-07T15:49:13.891Z,10.63
2018-07-07T15:51:42.067Z,14.73
2018-07-07T15:56:40.289Z,152.43
2018-07-07T15:59:08.437Z,128.27
2018-07-07T16:01:36.713Z,101.97
2018-07-07T16:04:04.856Z,54.83
2018-07-07T16:06:33.019Z,90.53
2018-07-07T16:09:01.106Z,49.57
2018-07-07T16:11:29.215Z,33.53
2018-07-07T16:13:57.400Z,37.40
2018-07-07T16:16:25.439Z,28.37
2018-07-07T16:18:53.546Z,27.10
2018-07-07T16:21:21.631Z,21.63
2018-07-07T16:23:49.684Z,16.57
2018-07-07T16:26:18.031Z,17.97
2018-07-07T16:28:46.141Z,10.73
2018-07-07T16:31:14.208Z,8.53
2018-07-07T16:33:42.276Z,10.13
2018-07-07T16:36:10.415Z,8.50
2018-07-07T16:38:39.606Z,6.73
2018-07-07T16:41:07.692Z,5.97
2018-07-07T16:43:35.791Z,7.00
2018-07-07T16:46:03.944Z,5.53
2018-07-07T16:51:10.671Z,5.63
2018-07-07T16:53:38.742Z,6.40
2018-07-07T16:56:06.913Z,4.20
2018-07-07T16:58:35.180Z,4.50
2018-07-07T17:01:04.166Z,4.07
2018-07-07T17:03:32.338Z,3.10
2018-07-07T17:06:02.099Z,4.13
2018-07-07T17:08:30.250Z,3.30
2018-07-07T17:10:58.505Z,2.90
2018-07-07T17:13:26.619Z,2.50
2018-07-07T17:15:54.747Z,2.60
2018-07-07T17:18:22.978Z,2.60
2018-07-07T17:20:50.991Z,2.53
2018-07-07T17:23:19.115Z,2.00
2018-07-07T17:25:47.142Z,2.50
2018-07-07T17:28:15.147Z,2.17
2018-07-07T17:30:43.164Z,2.27
2018-07-07T17:33:11.193Z,1.70
2018-07-07T17:35:39.232Z,1.97
2018-07-07T17:38:07.236Z,1.70
2018-07-07T17:40:35.228Z,1.67
2018-07-07T17:43:03.279Z,2.00
2018-07-07T17:45:31.336Z,1.73
2018-07-07T17:47:59.508Z,1.60
2018-07-07T17:50:27.514Z,1.70
2018-07-07T17:52:55.646Z,1.73
2018-07-07T17:55:23.702Z,1.30
2018-07-07T17:57:51.731Z,1.73
2018-07-07T18:00:20.312Z,1.67
2018-07-07T18:02:48.339Z,1.73
2018-07-07T18:05:16.407Z,1.40
2018-07-07T18:07:44.410Z,1.70
2018-07-07T18:10:12.406Z,2.03
2018-07-07T18:12:40.447Z,1.70
2018-07-07T18:15:08.522Z,1.40
2018-07-07T18:17:36.549Z,1.57
2018-07-07T18:20:04.545Z,1.47
2018-07-07T18:22:32.540Z,1.80
2018-07-07T18:25:00.546Z,1.80
2018-07-07T18:27:28.552Z,1.50
2018-07-07T18:29:56.694Z,1.67
2018-07-07T18:32:24.690Z,1.57
2018-07-07T18:34:52.703Z,2.10
2018-07-07T18:37:20.771Z,1.67
2018-07-07T18:39:48.755Z,2.00
2018-07-07T18:42:16.755Z,1.90
2018-07-07T18:44:44.780Z,1.50
2018-07-07T18:47:12.924Z,2.07
2018-07-07T18:49:41.352Z,1.50
2018-07-07T18:52:09.402Z,1.87
2018-07-07T18:54:40.633Z,1.80
2018-07-07T18:57:08.634Z,1.60
2018-07-07T18:59:36.661Z,1.73
2018-07-07T19:02:04.705Z,2.03
2018-07-07T19:04:32.703Z,1.73
2018-07-07T19:07:00.827Z,2.07
2018-07-07T19:09:28.879Z,1.87
2018-07-07T19:11:56.990Z,2.07
2018-07-07T19:14:25.000Z,1.70
2018-07-07T19:16:53.022Z,1.93
2018-07-07T19:19:21.226Z,1.80
2018-07-07T19:21:54.717Z,1.83
2018-07-07T19:24:28.290Z,2.17
2018-07-07T19:26:56.343Z,1.90
2018-07-07T19:29:24.322Z,2.10
2018-07-07T19:31:59.921Z,1.90
2018-07-07T19:34:33.471Z,2.00
2018-07-07T19:37:06.794Z,2.10
2018-07-07T19:39:35.247Z,1.97
2018-07-07T19:42:03.406Z,1.80
2018-07-07T19:44:31.580Z,1.87
2018-07-07T19:46:59.696Z,2.10
2018-07-07T19:49:27.893Z,1.90
2018-07-07T19:51:56.018Z,1.93
2018-07-07T19:54:24.277Z,1.60
2018-07-07T19:56:52.411Z,1.83
2018-07-07T19:59:20.489Z,2.17
2018-07-07T20:01:48.615Z,2.47
2018-07-07T20:04:16.682Z,1.90
2018-07-07T20:06:44.848Z,2.30
2018-07-07T20:09:12.949Z,1.97
2018-07-07T20:11:41.127Z,2.67
2018-07-07T20:14:13.056Z,1.93
2018-07-07T20:16:46.698Z,1.93
2018-07-07T20:19:18.517Z,2.07
2018-07-07T20:22:06.049Z,1.70
2018-07-07T20:24:35.708Z,2.53
2018-07-07T20:27:09.199Z,1.83
2018-07-07T20:29:37.831Z,1.73
2018-07-07T20:32:11.335Z,2.10
2018-07-07T20:34:39.598Z,1.70
2018-07-07T20:37:07.688Z,1.70
2018-07-07T20:39:35.760Z,1.90
2018-07-07T20:42:04.013Z,1.60
2018-07-07T20:44:32.126Z,1.77
2018-07-07T20:47:00.320Z,1.70
2018-07-07T20:49:28.496Z,1.73
2018-07-07T20:51:56.605Z,1.83
2018-07-07T20:54:25.400Z,1.67
2018-07-07T20:56:53.511Z,1.63
2018-07-07T20:59:21.679Z,2.03
2018-07-07T21:01:49.867Z,1.80
2018-07-07T21:04:20.617Z,1.70
2018-07-07T21:06:48.731Z,1.53
2018-07-07T21:09:16.835Z,1.60
2018-07-07T21:11:44.927Z,1.63
2018-07-07T21:14:12.996Z,1.67
2018-07-07T21:16:41.047Z,1.70
2018-07-07T21:19:09.142Z,1.67
2018-07-07T21:21:37.247Z,1.50
2018-07-07T21:29:31.873Z,1.80
2018-07-07T21:31:59.991Z,1.87
2018-07-07T21:34:28.243Z,1.50
2018-07-07T21:36:56.537Z,1.80
2018-07-07T21:39:24.639Z,1.80
2018-07-07T21:41:52.888Z,1.50
2018-07-07T21:44:21.043Z,2.10
2018-07-07T21:46:49.106Z,1.90
2018-07-07T21:49:17.176Z,1.70
2018-07-07T21:51:45.231Z,1.87
2018-07-07T21:54:13.316Z,1.70
2018-07-07T21:56:41.399Z,1.70
2018-07-07T21:59:14.768Z,1.80
2018-07-07T22:01:58.514Z,1.40
2018-07-07T22:04:33.165Z,1.50
2018-07-07T22:07:07.346Z,1.80
2018-07-07T22:09:36.013Z,1.60
2018-07-07T22:12:04.023Z,1.50
2018-07-07T22:14:32.198Z,1.70
2018-07-07T22:17:01.231Z,1.63
2018-07-07T22:19:29.218Z,1.60
2018-07-07T22:22:03.879Z,1.67
2018-07-07T22:24:31.919Z,1.57
2018-07-07T22:27:01.158Z,1.80
2018-07-07T22:29:29.318Z,1.60
2018-07-07T22:31:58.707Z,1.60
2018-07-07T22:34:31.040Z,1.70
2018-07-07T22:36:59.039Z,1.70
2018-07-07T22:39:27.021Z,1.70
2018-07-07T22:42:01.215Z,1.70
2018-07-07T22:44:29.370Z,1.80
2018-07-07T22:46:57.546Z,1.60
2018-07-07T22:49:27.081Z,1.60
2018-07-07T22:51:55.114Z,1.63
2018-07-07T22:54:23.158Z,1.50
2018-07-07T22:56:51.167Z,1.30
2018-07-07T22:59:19.180Z,1.53
2018-07-07T23:01:52.054Z,1.60
2018-07-07T23:04:24.947Z,1.60
2018-07-07T23:06:57.967Z,1.63
2018-07-07T23:09:31.346Z,1.60
2018-07-07T23:12:06.532Z,1.63
2018-07-07T23:14:39.344Z,1.60
2018-07-07T23:17:12.123Z,1.50
2018-07-07T23:19:44.933Z,1.63
2018-07-07T23:22:19.401Z,1.60
2018-07-07T23:24:52.297Z,1.60
2018-07-07T23:27:25.318Z,1.97
2018-07-07T23:29:58.243Z,1.50
2018-07-07T23:32:31.041Z,1.57
2018-07-07T23:35:04.000Z,1.60
2018-07-07T23:37:37.041Z,1.60
2018-07-07T23:40:10.349Z,1.70
2018-07-07T23:42:43.791Z,1.60
2018-07-07T23:45:16.741Z,1.60
2018-07-07T23:47:49.640Z,1.80
2018-07-07T23:50:22.162Z,1.90
2018-07-07T23:52:54.918Z,1.70
2018-07-07T23:55:28.730Z,1.70
2018-07-07T23:58:01.651Z,1.60
